sensor_id;sensor_type;location;lat;lon;timestamp;P1;durP1;ratioP1;P2;durP2;ratioP2
34783;SDS011;20998;51.388;7.032;2023-08-17T00:00:16;6.53;;;3.83;;
34783;SDS011;20998;51.388;7.032;2023-08-17T00:02:43;9.40;;;4.17;;
34783;SDS011;20998;51.388;7.032;2023-08-17T00:05:09;16.80;;;4.10;;
34783;SDS011;20998;51.388;7.032;2023-08-17T00:07:35;7.37;;;4.40;;
34783;SDS011;20998;51.388;7.032;2023-08-17T00:10:02;9.93;;;5.10;;
34783;SDS011;20998;51.388;7.032;2023-08-17T00:12:28;7.07;;;4.60;;
34783;SDS011;20998;51.388;7.032;2023-08-17T00:14:54;5.50;;;3.77;;
34783;SDS011;20998;51.388;7.032;2023-08-17T00:17:20;7.67;;;4.20;;
34783;SDS011;20998;51.388;7.032;2023-08-17T00:19:46;5.90;;;4.47;;
34783;SDS011;20998;51.388;7.032;2023-08-17T00:22:12;8.63;;;4.40;;
34783;SDS011;20998;51.388;7.032;2023-08-17T00:24:38;7.40;;;4.00;;
34783;SDS011;20998;51.388;7.032;2023-08-17T00:27:06;11.53;;;4.83;;
34783;SDS011;20998;51.388;7.032;2023-08-17T00:29:32;5.97;;;4.17;;
34783;SDS011;20998;51.388;7.032;2023-08-17T00:32:00;8.33;;;5.10;;
34783;SDS011;20998;51.388;7.032;2023-08-17T00:34:26;8.10;;;4.30;;
34783;SDS011;20998;51.388;7.032;2023-08-17T00:36:52;6.30;;;4.03;;
34783;SDS011;20998;51.388;7.032;2023-08-17T00:39:18;6.93;;;4.23;;
34783;SDS011;20998;51.388;7.032;2023-08-17T00:41:45;9.13;;;3.83;;
34783;SDS011;20998;51.388;7.032;2023-08-17T00:44:11;6.23;;;4.30;;
34783;SDS011;20998;51.388;7.032;2023-08-17T00:46:37;6.63;;;4.00;;
34783;SDS011;20998;51.388;7.032;2023-08-17T00:49:03;7.20;;;4.20;;
34783;SDS011;20998;51.388;7.032;2023-08-17T00:51:30;11.60;;;4.80;;
34783;SDS011;20998;51.388;7.032;2023-08-17T00:53:57;6.30;;;4.00;;
34783;SDS011;20998;51.388;7.032;2023-08-17T00:56:25;14.10;;;4.57;;
34783;SDS011;20998;51.388;7.032;2023-08-17T00:58:51;23.10;;;4.67;;
34783;SDS011;20998;51.388;7.032;2023-08-17T01:01:19;9.13;;;4.00;;
34783;SDS011;20998;51.388;7.032;2023-08-17T01:03:45;5.37;;;3.87;;
34783;SDS011;20998;51.388;7.032;2023-08-17T01:06:11;10.87;;;4.13;;
34783;SDS011;20998;51.388;7.032;2023-08-17T01:08:37;4.47;;;4.07;;
34783;SDS011;20998;51.388;7.032;2023-08-17T01:11:13;9.50;;;4.00;;
34783;SDS011;20998;51.388;7.032;2023-08-17T01:16:20;8.70;;;4.20;;
34783;SDS011;20998;51.388;7.032;2023-08-17T01:18:51;6.43;;;4.33;;
34783;SDS011;20998;51.388;7.032;2023-08-17T01:21:18;9.53;;;4.13;;
34783;SDS011;20998;51.388;7.032;2023-08-17T01:23:48;14.33;;;4.30;;
34783;SDS011;20998;51.388;7.032;2023-08-17T01:26:14;10.23;;;4.40;;
34783;SDS011;20998;51.388;7.032;2023-08-17T01:28:44;5.17;;;3.83;;
34783;SDS011;20998;51.388;7.032;2023-08-17T01:31:13;5.47;;;3.93;;
34783;SDS011;20998;51.388;7.032;2023-08-17T01:33:47;4.57;;;3.73;;
34783;SDS011;20998;51.388;7.032;2023-08-17T01:36:20;7.57;;;3.90;;
34783;SDS011;20998;51.388;7.032;2023-08-17T01:38:51;5.57;;;3.80;;
34783;SDS011;20998;51.388;7.032;2023-08-17T01:41:20;8.00;;;4.33;;
34783;SDS011;20998;51.388;7.032;2023-08-17T01:43:48;5.37;;;4.00;;
34783;SDS011;20998;51.388;7.032;2023-08-17T01:46:15;12.73;;;4.30;;
34783;SDS011;20998;51.388;7.032;2023-08-17T01:48:41;7.43;;;4.10;;
34783;SDS011;20998;51.388;7.032;2023-08-17T01:51:08;4.90;;;4.03;;
34783;SDS011;20998;51.388;7.032;2023-08-17T01:53:34;7.33;;;4.20;;
34783;SDS011;20998;51.388;7.032;2023-08-17T01:56:00;19.87;;;3.97;;
34783;SDS011;20998;51.388;7.032;2023-08-17T01:58:26;4.83;;;4.17;;
34783;SDS011;20998;51.388;7.032;2023-08-17T02:00:52;8.23;;;4.70;;
34783;SDS011;20998;51.388;7.032;2023-08-17T02:03:17;5.37;;;4.17;;
34783;SDS011;20998;51.388;7.032;2023-08-17T02:05:44;4.63;;;4.00;;
34783;SDS011;20998;51.388;7.032;2023-08-17T02:08:10;9.57;;;4.67;;
34783;SDS011;20998;51.388;7.032;2023-08-17T02:10:36;6.30;;;4.03;;
34783;SDS011;20998;51.388;7.032;2023-08-17T02:13:03;5.67;;;4.10;;
34783;SDS011;20998;51.388;7.032;2023-08-17T02:15:29;8.10;;;4.03;;
34783;SDS011;20998;51.388;7.032;2023-08-17T02:17:56;7.87;;;5.17;;
34783;SDS011;20998;51.388;7.032;2023-08-17T02:20:22;7.73;;;4.03;;
34783;SDS011;20998;51.388;7.032;2023-08-17T02:22:48;7.67;;;4.70;;
34783;SDS011;20998;51.388;7.032;2023-08-17T02:25:14;8.33;;;4.27;;
34783;SDS011;20998;51.388;7.032;2023-08-17T02:27:39;10.60;;;4.63;;
34783;SDS011;20998;51.388;7.032;2023-08-17T02:30:06;7.30;;;4.80;;
34783;SDS011;20998;51.388;7.032;2023-08-17T02:32:32;13.17;;;4.30;;
34783;SDS011;20998;51.388;7.032;2023-08-17T02:34:58;6.57;;;3.90;;
34783;SDS011;20998;51.388;7.032;2023-08-17T02:37:24;8.53;;;4.20;;
34783;SDS011;20998;51.388;7.032;2023-08-17T02:39:50;7.27;;;4.30;;
34783;SDS011;20998;51.388;7.032;2023-08-17T02:42:16;7.80;;;4.00;;
34783;SDS011;20998;51.388;7.032;2023-08-17T02:44:42;10.83;;;4.30;;
34783;SDS011;20998;51.388;7.032;2023-08-17T02:47:08;7.30;;;4.23;;
34783;SDS011;20998;51.388;7.032;2023-08-17T02:49:34;10.20;;;4.27;;
34783;SDS011;20998;51.388;7.032;2023-08-17T02:52:00;13.40;;;4.83;;
34783;SDS011;20998;51.388;7.032;2023-08-17T02:54:26;8.60;;;4.70;;
34783;SDS011;20998;51.388;7.032;2023-08-17T02:56:52;7.47;;;4.40;;
34783;SDS011;20998;51.388;7.032;2023-08-17T02:59:18;6.50;;;4.13;;
34783;SDS011;20998;51.388;7.032;2023-08-17T03:01:44;8.50;;;4.47;;
34783;SDS011;20998;51.388;7.032;2023-08-17T03:04:10;6.43;;;4.30;;
34783;SDS011;20998;51.388;7.032;2023-08-17T03:06:36;6.50;;;4.33;;
34783;SDS011;20998;51.388;7.032;2023-08-17T03:09:02;6.83;;;4.10;;
34783;SDS011;20998;51.388;7.032;2023-08-17T03:11:28;18.40;;;5.20;;
34783;SDS011;20998;51.388;7.032;2023-08-17T03:13:54;8.20;;;4.20;;
34783;SDS011;20998;51.388;7.032;2023-08-17T03:16:25;10.53;;;4.73;;
34783;SDS011;20998;51.388;7.032;2023-08-17T03:18:51;7.00;;;4.33;;
34783;SDS011;20998;51.388;7.032;2023-08-17T03:21:17;7.80;;;4.63;;
34783;SDS011;20998;51.388;7.032;2023-08-17T03:23:44;6.40;;;4.17;;
34783;SDS011;20998;51.388;7.032;2023-08-17T03:26:10;7.13;;;4.37;;
34783;SDS011;20998;51.388;7.032;2023-08-17T03:28:36;7.97;;;4.63;;
34783;SDS011;20998;51.388;7.032;2023-08-17T03:31:02;9.33;;;4.77;;
34783;SDS011;20998;51.388;7.032;2023-08-17T03:33:28;9.47;;;5.20;;
34783;SDS011;20998;51.388;7.032;2023-08-17T03:35:53;9.17;;;4.93;;
34783;SDS011;20998;51.388;7.032;2023-08-17T03:38:19;8.87;;;5.23;;
34783;SDS011;20998;51.388;7.032;2023-08-17T03:40:46;7.67;;;5.27;;
34783;SDS011;20998;51.388;7.032;2023-08-17T03:43:12;20.90;;;5.73;;
34783;SDS011;20998;51.388;7.032;2023-08-17T03:45:40;15.60;;;6.53;;
34783;SDS011;20998;51.388;7.032;2023-08-17T03:48:06;17.37;;;6.13;;
34783;SDS011;20998;51.388;7.032;2023-08-17T03:50:32;9.23;;;5.67;;
34783;SDS011;20998;51.388;7.032;2023-08-17T03:52:58;12.50;;;5.33;;
34783;SDS011;20998;51.388;7.032;2023-08-17T03:55:24;12.40;;;5.87;;
34783;SDS011;20998;51.388;7.032;2023-08-17T03:57:50;25.47;;;6.70;;
34783;SDS011;20998;51.388;7.032;2023-08-17T04:00:16;16.77;;;6.47;;
34783;SDS011;20998;51.388;7.032;2023-08-17T04:02:42;9.87;;;6.47;;
34783;SDS011;20998;51.388;7.032;2023-08-17T04:05:08;9.47;;;6.20;;
34783;SDS011;20998;51.388;7.032;2023-08-17T04:07:34;11.43;;;6.43;;
34783;SDS011;20998;51.388;7.032;2023-08-17T04:10:00;9.13;;;5.90;;
34783;SDS011;20998;51.388;7.032;2023-08-17T04:12:26;14.53;;;6.43;;
34783;SDS011;20998;51.388;7.032;2023-08-17T04:14:52;8.17;;;5.53;;
34783;SDS011;20998;51.388;7.032;2023-08-17T04:17:18;18.93;;;6.67;;
34783;SDS011;20998;51.388;7.032;2023-08-17T04:19:45;16.40;;;6.30;;
34783;SDS011;20998;51.388;7.032;2023-08-17T04:22:11;10.37;;;6.13;;
34783;SDS011;20998;51.388;7.032;2023-08-17T04:24:37;15.30;;;7.37;;
34783;SDS011;20998;51.388;7.032;2023-08-17T04:27:03;21.87;;;6.83;;
34783;SDS011;20998;51.388;7.032;2023-08-17T04:29:30;10.37;;;6.87;;
34783;SDS011;20998;51.388;7.032;2023-08-17T04:31:56;11.03;;;6.80;;
34783;SDS011;20998;51.388;7.032;2023-08-17T04:34:22;11.80;;;6.70;;
34783;SDS011;20998;51.388;7.032;2023-08-17T04:36:48;11.83;;;6.80;;
34783;SDS011;20998;51.388;7.032;2023-08-17T04:39:14;15.77;;;7.77;;
34783;SDS011;20998;51.388;7.032;2023-08-17T04:41:40;14.30;;;7.30;;
34783;SDS011;20998;51.388;7.032;2023-08-17T04:44:06;10.57;;;7.10;;
34783;SDS011;20998;51.388;7.032;2023-08-17T04:46:32;11.90;;;7.27;;
34783;SDS011;20998;51.388;7.032;2023-08-17T04:48:57;17.70;;;7.07;;
34783;SDS011;20998;51.388;7.032;2023-08-17T04:51:23;18.27;;;7.87;;
34783;SDS011;20998;51.388;7.032;2023-08-17T04:53:49;14.50;;;8.03;;
34783;SDS011;20998;51.388;7.032;2023-08-17T04:56:15;12.30;;;7.83;;
34783;SDS011;20998;51.388;7.032;2023-08-17T04:58:41;21.83;;;8.20;;
34783;SDS011;20998;51.388;7.032;2023-08-17T05:01:07;14.70;;;8.00;;
34783;SDS011;20998;51.388;7.032;2023-08-17T05:03:33;12.63;;;7.60;;
34783;SDS011;20998;51.388;7.032;2023-08-17T05:05:59;16.37;;;8.17;;
34783;SDS011;20998;51.388;7.032;2023-08-17T05:08:25;11.57;;;7.60;;
34783;SDS011;20998;51.388;7.032;2023-08-17T05:10:50;14.33;;;8.93;;
34783;SDS011;20998;51.388;7.032;2023-08-17T05:13:16;14.53;;;8.17;;
34783;SDS011;20998;51.388;7.032;2023-08-17T05:15:42;22.73;;;9.20;;
34783;SDS011;20998;51.388;7.032;2023-08-17T05:18:08;26.87;;;11.13;;
34783;SDS011;20998;51.388;7.032;2023-08-17T05:20:34;20.43;;;10.50;;
34783;SDS011;20998;51.388;7.032;2023-08-17T05:23:00;18.37;;;10.80;;
34783;SDS011;20998;51.388;7.032;2023-08-17T05:25:25;23.33;;;11.60;;
34783;SDS011;20998;51.388;7.032;2023-08-17T05:27:52;20.10;;;10.57;;
34783;SDS011;20998;51.388;7.032;2023-08-17T05:30:18;21.30;;;10.93;;
34783;SDS011;20998;51.388;7.032;2023-08-17T05:32:44;35.17;;;12.13;;
34783;SDS011;20998;51.388;7.032;2023-08-17T05:35:11;20.17;;;11.20;;
34783;SDS011;20998;51.388;7.032;2023-08-17T05:37:37;20.17;;;11.50;;
34783;SDS011;20998;51.388;7.032;2023-08-17T05:40:03;18.00;;;11.37;;
34783;SDS011;20998;51.388;7.032;2023-08-17T05:42:29;19.00;;;11.67;;
34783;SDS011;20998;51.388;7.032;2023-08-17T05:44:55;24.27;;;12.93;;
34783;SDS011;20998;51.388;7.032;2023-08-17T05:47:21;27.23;;;13.23;;
34783;SDS011;20998;51.388;7.032;2023-08-17T05:49:47;28.40;;;12.33;;
34783;SDS011;20998;51.388;7.032;2023-08-17T05:52:12;24.30;;;12.87;;
34783;SDS011;20998;51.388;7.032;2023-08-17T05:54:38;22.70;;;12.37;;
34783;SDS011;20998;51.388;7.032;2023-08-17T05:57:04;24.17;;;12.90;;
34783;SDS011;20998;51.388;7.032;2023-08-17T05:59:30;22.17;;;12.47;;
34783;SDS011;20998;51.388;7.032;2023-08-17T06:01:56;18.93;;;12.00;;
34783;SDS011;20998;51.388;7.032;2023-08-17T06:04:22;20.53;;;11.87;;
34783;SDS011;20998;51.388;7.032;2023-08-17T06:06:48;27.37;;;12.87;;
34783;SDS011;20998;51.388;7.032;2023-08-17T06:09:14;21.07;;;11.70;;
34783;SDS011;20998;51.388;7.032;2023-08-17T06:11:40;23.93;;;12.33;;
34783;SDS011;20998;51.388;7.032;2023-08-17T06:14:06;29.10;;;11.87;;
34783;SDS011;20998;51.388;7.032;2023-08-17T06:16:32;24.33;;;12.03;;
34783;SDS011;20998;51.388;7.032;2023-08-17T06:18:58;25.60;;;12.93;;
34783;SDS011;20998;51.388;7.032;2023-08-17T06:21:24;24.53;;;12.57;;
34783;SDS011;20998;51.388;7.032;2023-08-17T06:23:50;22.03;;;12.37;;
34783;SDS011;20998;51.388;7.032;2023-08-17T06:26:15;23.67;;;12.20;;
34783;SDS011;20998;51.388;7.032;2023-08-17T06:28:41;30.33;;;11.77;;
34783;SDS011;20998;51.388;7.032;2023-08-17T06:31:07;22.47;;;12.33;;
34783;SDS011;20998;51.388;7.032;2023-08-17T06:33:33;23.67;;;13.43;;
34783;SDS011;20998;51.388;7.032;2023-08-17T06:35:58;20.63;;;10.77;;
34783;SDS011;20998;51.388;7.032;2023-08-17T06:38:24;26.97;;;11.30;;
34783;SDS011;20998;51.388;7.032;2023-08-17T06:40:51;24.23;;;10.13;;
34783;SDS011;20998;51.388;7.032;2023-08-17T06:43:17;22.33;;;9.73;;
34783;SDS011;20998;51.388;7.032;2023-08-17T06:45:43;18.57;;;9.83;;
34783;SDS011;20998;51.388;7.032;2023-08-17T06:48:09;16.37;;;9.17;;
34783;SDS011;20998;51.388;7.032;2023-08-17T06:50:35;16.90;;;8.77;;
34783;SDS011;20998;51.388;7.032;2023-08-17T06:53:01;16.97;;;9.37;;
34783;SDS011;20998;51.388;7.032;2023-08-17T06:55:27;15.17;;;9.73;;
34783;SDS011;20998;51.388;7.032;2023-08-17T06:57:53;20.30;;;9.87;;
34783;SDS011;20998;51.388;7.032;2023-08-17T07:00:20;23.63;;;10.70;;
34783;SDS011;20998;51.388;7.032;2023-08-17T07:02:46;22.17;;;10.57;;
34783;SDS011;20998;51.388;7.032;2023-08-17T07:05:14;19.57;;;10.67;;
34783;SDS011;20998;51.388;7.032;2023-08-17T07:07:40;21.80;;;11.80;;
34783;SDS011;20998;51.388;7.032;2023-08-17T07:10:07;22.87;;;11.67;;
34783;SDS011;20998;51.388;7.032;2023-08-17T07:12:33;26.43;;;12.87;;
34783;SDS011;20998;51.388;7.032;2023-08-17T07:14:59;25.33;;;12.60;;
34783;SDS011;20998;51.388;7.032;2023-08-17T07:17:24;25.20;;;13.73;;
34783;SDS011;20998;51.388;7.032;2023-08-17T07:19:50;23.07;;;12.80;;
34783;SDS011;20998;51.388;7.032;2023-08-17T07:22:16;30.93;;;13.37;;
34783;SDS011;20998;51.388;7.032;2023-08-17T07:24:42;25.57;;;13.00;;
34783;SDS011;20998;51.388;7.032;2023-08-17T07:27:08;23.67;;;12.57;;
34783;SDS011;20998;51.388;7.032;2023-08-17T07:29:34;27.47;;;12.97;;
34783;SDS011;20998;51.388;7.032;2023-08-17T07:32:00;31.60;;;14.47;;
34783;SDS011;20998;51.388;7.032;2023-08-17T07:34:27;32.07;;;14.23;;
34783;SDS011;20998;51.388;7.032;2023-08-17T07:36:55;28.83;;;13.73;;
34783;SDS011;20998;51.388;7.032;2023-08-17T07:39:21;34.00;;;14.47;;
34783;SDS011;20998;51.388;7.032;2023-08-17T07:41:47;26.50;;;13.10;;
34783;SDS011;20998;51.388;7.032;2023-08-17T07:44:13;25.20;;;12.93;;
34783;SDS011;20998;51.388;7.032;2023-08-17T07:46:39;24.13;;;12.63;;
34783;SDS011;20998;51.388;7.032;2023-08-17T07:49:05;22.03;;;13.10;;
34783;SDS011;20998;51.388;7.032;2023-08-17T07:51:30;26.10;;;13.03;;
34783;SDS011;20998;51.388;7.032;2023-08-17T07:53:59;26.33;;;14.63;;
34783;SDS011;20998;51.388;7.032;2023-08-17T07:56:25;24.63;;;14.77;;
34783;SDS011;20998;51.388;7.032;2023-08-17T07:58:53;25.90;;;12.77;;
34783;SDS011;20998;51.388;7.032;2023-08-17T08:01:19;24.57;;;12.57;;
34783;SDS011;20998;51.388;7.032;2023-08-17T08:03:45;26.07;;;12.43;;
34783;SDS011;20998;51.388;7.032;2023-08-17T08:06:11;29.03;;;12.93;;
34783;SDS011;20998;51.388;7.032;2023-08-17T08:08:37;24.73;;;11.57;;
34783;SDS011;20998;51.388;7.032;2023-08-17T08:11:03;21.07;;;11.83;;
34783;SDS011;20998;51.388;7.032;2023-08-17T08:13:29;25.17;;;13.07;;
34783;SDS011;20998;51.388;7.032;2023-08-17T08:15:55;22.27;;;12.30;;
34783;SDS011;20998;51.388;7.032;2023-08-17T08:18:21;24.43;;;12.67;;
34783;SDS011;20998;51.388;7.032;2023-08-17T08:20:48;25.27;;;12.77;;
34783;SDS011;20998;51.388;7.032;2023-08-17T08:23:14;26.23;;;12.17;;
34783;SDS011;20998;51.388;7.032;2023-08-17T08:25:40;21.97;;;11.30;;
34783;SDS011;20998;51.388;7.032;2023-08-17T08:28:06;24.30;;;12.57;;
34783;SDS011;20998;51.388;7.032;2023-08-17T08:30:33;22.27;;;10.80;;
34783;SDS011;20998;51.388;7.032;2023-08-17T08:32:59;25.60;;;12.13;;
34783;SDS011;20998;51.388;7.032;2023-08-17T08:35:25;25.20;;;12.83;;
34783;SDS011;20998;51.388;7.032;2023-08-17T08:37:52;21.83;;;12.10;;
34783;SDS011;20998;51.388;7.032;2023-08-17T08:40:20;23.30;;;11.50;;
34783;SDS011;20998;51.388;7.032;2023-08-17T08:42:56;21.57;;;12.07;;
34783;SDS011;20998;51.388;7.032;2023-08-17T08:45:22;26.17;;;12.53;;
34783;SDS011;20998;51.388;7.032;2023-08-17T08:47:49;26.63;;;12.30;;
34783;SDS011;20998;51.388;7.032;2023-08-17T08:50:18;22.73;;;11.20;;
34783;SDS011;20998;51.388;7.032;2023-08-17T08:52:53;28.80;;;12.50;;
34783;SDS011;20998;51.388;7.032;2023-08-17T08:55:26;22.23;;;12.10;;
34783;SDS011;20998;51.388;7.032;2023-08-17T08:57:54;25.00;;;11.37;;
34783;SDS011;20998;51.388;7.032;2023-08-17T09:00:22;30.60;;;13.93;;
34783;SDS011;20998;51.388;7.032;2023-08-17T09:02:48;21.07;;;12.03;;
34783;SDS011;20998;51.388;7.032;2023-08-17T09:05:14;23.67;;;13.57;;
34783;SDS011;20998;51.388;7.032;2023-08-17T09:07:40;26.00;;;12.97;;
34783;SDS011;20998;51.388;7.032;2023-08-17T09:10:08;24.83;;;14.30;;
34783;SDS011;20998;51.388;7.032;2023-08-17T09:12:35;26.63;;;13.57;;
34783;SDS011;20998;51.388;7.032;2023-08-17T09:15:01;25.47;;;12.97;;
34783;SDS011;20998;51.388;7.032;2023-08-17T09:17:27;26.23;;;11.97;;
34783;SDS011;20998;51.388;7.032;2023-08-17T09:19:53;23.87;;;11.53;;
34783;SDS011;20998;51.388;7.032;2023-08-17T09:22:23;24.17;;;11.73;;
34783;SDS011;20998;51.388;7.032;2023-08-17T09:24:50;18.57;;;11.10;;
34783;SDS011;20998;51.388;7.032;2023-08-17T09:27:16;20.27;;;11.93;;
34783;SDS011;20998;51.388;7.032;2023-08-17T09:29:42;21.50;;;11.43;;
34783;SDS011;20998;51.388;7.032;2023-08-17T09:32:10;29.70;;;12.90;;
34783;SDS011;20998;51.388;7.032;2023-08-17T09:34:36;22.80;;;12.17;;
34783;SDS011;20998;51.388;7.032;2023-08-17T09:37:05;25.93;;;13.50;;
34783;SDS011;20998;51.388;7.032;2023-08-17T09:39:31;30.00;;;13.67;;
34783;SDS011;20998;51.388;7.032;2023-08-17T09:41:57;24.90;;;13.20;;
34783;SDS011;20998;51.388;7.032;2023-08-17T09:44:24;25.80;;;13.33;;
34783;SDS011;20998;51.388;7.032;2023-08-17T09:46:50;24.43;;;12.93;;
34783;SDS011;20998;51.388;7.032;2023-08-17T09:49:17;22.33;;;13.10;;
34783;SDS011;20998;51.388;7.032;2023-08-17T09:51:44;27.23;;;13.37;;
34783;SDS011;20998;51.388;7.032;2023-08-17T09:54:20;23.63;;;12.27;;
34783;SDS011;20998;51.388;7.032;2023-08-17T09:56:51;24.80;;;14.37;;
34783;SDS011;20998;51.388;7.032;2023-08-17T09:59:18;20.67;;;12.93;;
34783;SDS011;20998;51.388;7.032;2023-08-17T10:01:44;23.63;;;12.87;;
34783;SDS011;20998;51.388;7.032;2023-08-17T10:04:16;22.77;;;11.93;;
34783;SDS011;20998;51.388;7.032;2023-08-17T10:06:48;18.00;;;11.73;;
34783;SDS011;20998;51.388;7.032;2023-08-17T10:09:21;19.73;;;11.70;;
34783;SDS011;20998;51.388;7.032;2023-08-17T10:11:51;17.83;;;11.93;;
34783;SDS011;20998;51.388;7.032;2023-08-17T10:14:22;24.47;;;11.47;;
34783;SDS011;20998;51.388;7.032;2023-08-17T10:16:57;18.60;;;11.50;;
34783;SDS011;20998;51.388;7.032;2023-08-17T10:19:49;20.23;;;11.87;;
34783;SDS011;20998;51.388;7.032;2023-08-17T10:25:10;16.40;;;10.30;;
34783;SDS011;20998;51.388;7.032;2023-08-17T10:27:38;20.07;;;11.90;;
34783;SDS011;20998;51.388;7.032;2023-08-17T10:30:07;19.10;;;11.27;;
34783;SDS011;20998;51.388;7.032;2023-08-17T10:32:36;17.60;;;12.27;;
34783;SDS011;20998;51.388;7.032;2023-08-17T10:35:03;17.43;;;11.63;;
34783;SDS011;20998;51.388;7.032;2023-08-17T10:37:30;17.57;;;10.97;;
34783;SDS011;20998;51.388;7.032;2023-08-17T10:39:56;18.87;;;10.63;;
34783;SDS011;20998;51.388;7.032;2023-08-17T10:42:35;17.67;;;10.57;;
34783;SDS011;20998;51.388;7.032;2023-08-17T10:45:46;23.10;;;11.27;;
34783;SDS011;20998;51.388;7.032;2023-08-17T10:47:50;19.27;;;10.53;;
34783;SDS011;20998;51.388;7.032;2023-08-17T10:50:23;20.30;;;11.40;;
34783;SDS011;20998;51.388;7.032;2023-08-17T10:52:50;16.90;;;11.00;;
34783;SDS011;20998;51.388;7.032;2023-08-17T10:55:19;20.20;;;11.07;;
34783;SDS011;20998;51.388;7.032;2023-08-17T10:58:09;23.63;;;12.33;;
34783;SDS011;20998;51.388;7.032;2023-08-17T11:00:37;16.87;;;10.77;;
34783;SDS011;20998;51.388;7.032;2023-08-17T11:03:07;18.80;;;10.80;;
34783;SDS011;20998;51.388;7.032;2023-08-17T11:05:48;21.37;;;10.60;;
34783;SDS011;20998;51.388;7.032;2023-08-17T11:08:38;24.37;;;10.07;;
34783;SDS011;20998;51.388;7.032;2023-08-17T11:11:06;14.40;;;9.27;;
34783;SDS011;20998;51.388;7.032;2023-08-17T11:13:36;16.07;;;9.43;;
34783;SDS011;20998;51.388;7.032;2023-08-17T11:16:04;15.90;;;9.57;;
34783;SDS011;20998;51.388;7.032;2023-08-17T11:18:30;15.33;;;9.30;;
34783;SDS011;20998;51.388;7.032;2023-08-17T11:20:57;15.10;;;9.20;;
34783;SDS011;20998;51.388;7.032;2023-08-17T11:23:23;14.60;;;9.07;;
34783;SDS011;20998;51.388;7.032;2023-08-17T11:25:49;12.60;;;8.60;;
34783;SDS011;20998;51.388;7.032;2023-08-17T11:28:16;16.53;;;8.20;;
34783;SDS011;20998;51.388;7.032;2023-08-17T11:30:42;15.97;;;7.83;;
34783;SDS011;20998;51.388;7.032;2023-08-17T11:33:08;15.33;;;8.93;;
34783;SDS011;20998;51.388;7.032;2023-08-17T11:35:35;15.80;;;8.60;;
34783;SDS011;20998;51.388;7.032;2023-08-17T11:38:01;15.37;;;8.83;;
34783;SDS011;20998;51.388;7.032;2023-08-17T11:40:28;15.90;;;8.50;;
34783;SDS011;20998;51.388;7.032;2023-08-17T11:42:54;13.57;;;8.40;;
34783;SDS011;20998;51.388;7.032;2023-08-17T11:45:20;9.47;;;6.77;;
34783;SDS011;20998;51.388;7.032;2023-08-17T11:47:46;9.77;;;7.33;;
34783;SDS011;20998;51.388;7.032;2023-08-17T11:50:13;11.37;;;7.40;;
34783;SDS011;20998;51.388;7.032;2023-08-17T11:52:39;11.00;;;6.90;;
34783;SDS011;20998;51.388;7.032;2023-08-17T11:55:06;17.27;;;6.53;;
34783;SDS011;20998;51.388;7.032;2023-08-17T11:57:33;12.73;;;6.07;;
34783;SDS011;20998;51.388;7.032;2023-08-17T12:00:00;9.27;;;6.43;;
34783;SDS011;20998;51.388;7.032;2023-08-17T12:02:26;10.57;;;5.97;;
34783;SDS011;20998;51.388;7.032;2023-08-17T12:04:54;9.40;;;6.30;;
34783;SDS011;20998;51.388;7.032;2023-08-17T12:07:21;9.03;;;6.37;;
34783;SDS011;20998;51.388;7.032;2023-08-17T12:09:48;8.07;;;5.70;;
34783;SDS011;20998;51.388;7.032;2023-08-17T12:12:18;6.07;;;4.67;;
34783;SDS011;20998;51.388;7.032;2023-08-17T12:14:45;7.57;;;4.70;;
34783;SDS011;20998;51.388;7.032;2023-08-17T12:17:15;8.13;;;5.07;;
34783;SDS011;20998;51.388;7.032;2023-08-17T12:19:44;6.17;;;3.93;;
34783;SDS011;20998;51.388;7.032;2023-08-17T12:22:13;6.63;;;4.87;;
34783;SDS011;20998;51.388;7.032;2023-08-17T12:24:39;7.47;;;4.83;;
34783;SDS011;20998;51.388;7.032;2023-08-17T12:27:05;6.93;;;5.03;;
34783;SDS011;20998;51.388;7.032;2023-08-17T12:29:31;6.33;;;4.37;;
34783;SDS011;20998;51.388;7.032;2023-08-17T12:31:57;7.17;;;4.40;;
34783;SDS011;20998;51.388;7.032;2023-08-17T12:34:24;7.17;;;3.80;;
34783;SDS011;20998;51.388;7.032;2023-08-17T12:36:50;6.40;;;4.73;;
34783;SDS011;20998;51.388;7.032;2023-08-17T12:39:16;5.87;;;3.93;;
34783;SDS011;20998;51.388;7.032;2023-08-17T12:41:41;6.87;;;3.73;;
34783;SDS011;20998;51.388;7.032;2023-08-17T12:44:11;5.27;;;4.10;;
34783;SDS011;20998;51.388;7.032;2023-08-17T12:46:40;7.63;;;4.30;;
34783;SDS011;20998;51.388;7.032;2023-08-17T12:49:05;7.00;;;3.97;;
34783;SDS011;20998;51.388;7.032;2023-08-17T12:51:31;6.03;;;4.60;;
34783;SDS011;20998;51.388;7.032;2023-08-17T12:53:57;10.57;;;6.43;;
34783;SDS011;20998;51.388;7.032;2023-08-17T12:56:23;8.83;;;6.77;;
34783;SDS011;20998;51.388;7.032;2023-08-17T12:58:49;12.70;;;7.27;;
34783;SDS011;20998;51.388;7.032;2023-08-17T13:01:14;11.33;;;7.50;;
34783;SDS011;20998;51.388;7.032;2023-08-17T13:03:40;9.87;;;7.20;;
34783;SDS011;20998;51.388;7.032;2023-08-17T13:06:07;11.97;;;6.60;;
34783;SDS011;20998;51.388;7.032;2023-08-17T13:08:32;12.43;;;7.63;;
34783;SDS011;20998;51.388;7.032;2023-08-17T13:10:58;17.80;;;9.97;;
34783;SDS011;20998;51.388;7.032;2023-08-17T13:13:24;25.90;;;11.23;;
34783;SDS011;20998;51.388;7.032;2023-08-17T13:15:50;22.63;;;11.33;;
34783;SDS011;20998;51.388;7.032;2023-08-17T13:18:16;22.23;;;12.20;;
34783;SDS011;20998;51.388;7.032;2023-08-17T13:20:42;18.03;;;11.67;;
34783;SDS011;20998;51.388;7.032;2023-08-17T13:23:09;24.17;;;12.87;;
34783;SDS011;20998;51.388;7.032;2023-08-17T13:25:35;28.30;;;11.70;;
34783;SDS011;20998;51.388;7.032;2023-08-17T13:28:01;23.63;;;12.73;;
34783;SDS011;20998;51.388;7.032;2023-08-17T13:30:26;23.30;;;13.43;;
34783;SDS011;20998;51.388;7.032;2023-08-17T13:32:52;21.60;;;12.73;;
34783;SDS011;20998;51.388;7.032;2023-08-17T13:35:18;24.80;;;12.37;;
34783;SDS011;20998;51.388;7.032;2023-08-17T13:37:44;22.83;;;12.07;;
34783;SDS011;20998;51.388;7.032;2023-08-17T13:40:11;22.67;;;11.47;;
34783;SDS011;20998;51.388;7.032;2023-08-17T13:42:37;21.83;;;11.57;;
34783;SDS011;20998;51.388;7.032;2023-08-17T13:45:03;25.47;;;11.87;;
34783;SDS011;20998;51.388;7.032;2023-08-17T13:47:29;27.00;;;14.60;;
34783;SDS011;20998;51.388;7.032;2023-08-17T13:49:55;31.60;;;13.03;;
34783;SDS011;20998;51.388;7.032;2023-08-17T13:52:22;20.13;;;12.13;;
34783;SDS011;20998;51.388;7.032;2023-08-17T13:54:48;25.80;;;11.63;;
34783;SDS011;20998;51.388;7.032;2023-08-17T13:57:14;20.40;;;10.97;;
34783;SDS011;20998;51.388;7.032;2023-08-17T13:59:40;20.30;;;11.30;;
34783;SDS011;20998;51.388;7.032;2023-08-17T14:02:07;24.67;;;11.33;;
34783;SDS011;20998;51.388;7.032;2023-08-17T14:04:33;25.97;;;14.37;;
34783;SDS011;20998;51.388;7.032;2023-08-17T14:06:59;18.73;;;11.70;;
34783;SDS011;20998;51.388;7.032;2023-08-17T14:09:25;18.47;;;11.03;;
34783;SDS011;20998;51.388;7.032;2023-08-17T14:11:51;20.23;;;11.17;;
34783;SDS011;20998;51.388;7.032;2023-08-17T14:14:17;19.37;;;10.70;;
34783;SDS011;20998;51.388;7.032;2023-08-17T14:16:42;19.37;;;10.30;;
34783;SDS011;20998;51.388;7.032;2023-08-17T14:19:09;20.93;;;10.83;;
34783;SDS011;20998;51.388;7.032;2023-08-17T14:21:35;16.27;;;10.00;;
34783;SDS011;20998;51.388;7.032;2023-08-17T14:24:01;18.33;;;9.47;;
34783;SDS011;20998;51.388;7.032;2023-08-17T14:26:27;15.63;;;9.03;;
34783;SDS011;20998;51.388;7.032;2023-08-17T14:28:52;17.50;;;9.33;;
34783;SDS011;20998;51.388;7.032;2023-08-17T14:31:18;16.33;;;9.90;;
34783;SDS011;20998;51.388;7.032;2023-08-17T14:33:45;16.83;;;9.83;;
34783;SDS011;20998;51.388;7.032;2023-08-17T14:36:12;19.17;;;10.07;;